Kempten, Germany

8:25 AM CEST on July 28, 2016 (GMT +0200)
Tiefenbacher Straße | | Change Station

Elev 2290 ft 47.72 °N, 10.33 °E | Updated 2 minutes ago

Clear
Clear
61.5 °F
Feels Like 61.5 °F
N
2.5
Wind Variable Wind from North
Gusts 6.2 mph

Today
High -- | Low -- °F
--% Chance of Precip.
Yesterday
High -- | Low -- °F
Precip. -- in
Pressure 30.12 in
Visibility -9999.0 miles
Clouds
Dew Point 57 °F
Humidity 85%
Rainfall 0.07 in
Snow Depth Not available.
5:51 AM 8:58 PM
Waning Crescent, 35% visible
METAR EDJA 280550Z 21003KT CAVOK 16/14 Q1020
Pressure 30.12 in
Visibility -9999.0 miles
Clouds
Dew Point 57 °F
Humidity 85%
Rainfall 0.07 in
Snow Depth Not available.
5:51 AM 8:58 PM
Waning Crescent, 35% visible
METAR EDJA 280550Z 21003KT CAVOK 16/14 Q1020

10-Day Weather Forecast

×

Almanac

Astronomy

Jul. 28, 2016 Rise Set
Actual Time
Civil Twilight
Nautical Twilight
Astronomical Twilight
Moon
Length of Visible Light
Length of Day
Tomorrow will be .
, % of the Moon is Illuminated

Today's Extremes

Country Highs Country Lows

Community

WunderPhotos

Upload Photos

1,928,064 photos uploaded!

WunderBlog® & News

Nearby

Air Quality

  Air Quality AQ Index Pollutant
Not available.

Snow Depth

Station Depth Elevation

Earthquake Activity

City Distance Mag. Time & Date
Minimum magnitude displayed is 2.5.

Coastal Water Temperatures

Place Temperature

Stations

Nearby Weather Stations

Station Location Temp. Windchill Dew Point Humidity Wind Precip. Elev Updated Type